Welcome to Northern Hawkes Bay. New Zealand.
PWS Header
      nz Flag



Hit Counter


W3C Valid W3C Valid logo


    Wairoa

Select any of the Stations below to visit their websites.










Historic Data from Weather Underground
Select the location of interest below. Wairoa is the default. Please have patience, this Data is slow to load in.
Northern Hawkes Bay Historical Data
Daily Summary for May 7, 2017 Units:  Metric    English   Both
« Previous Day
Next Day »
Daily Weekly Monthly Yearly Custom
  High: Low: Average:
Temperature: 18.7 °C 4.7 °C 11.1 °C
Dew Point: 12.7 °C 4.6 °C 8.9 °C
Humidity: 99% 61% 87%
Wind Speed: 12.2km/h 0.0km/h 4.4km/h
Wind Gust: 17.2km/h - -
Wind- - WNW
Pressure: 1028.7 hPa 1027.0 hPa -
Precipitation: 0.0 mm    
Historical Graphs
 
 
Tabular Data for May 7, 2017
Time Temperature Dew Point Pressure Wind Wind Speed Wind Gust Humidity Rainfall Rate (Hourly) solar
00:03 7.0 °C 6.6 °C 1028.3 hPa NW 5.0 km/h 9.7 km/h 97% 0.0 mm 0 W/m2
00:07 7.1 °C 6.7 °C 1028.3 hPa NNW 3.5 km/h 9.7 km/h 97% 0.0 mm 0 W/m2
00:13 7.2 °C 6.8 °C 1028.3 hPa NNW 5.0 km/h 11.1 km/h 97% 0.0 mm 0 W/m2
00:18 7.2 °C 6.8 °C 1028.3 hPa NNW 6.1 km/h 11.1 km/h 97% 0.0 mm 0 W/m2
00:23 7.3 °C 6.8 °C 1028.3 hPa NW 7.2 km/h 11.1 km/h 97% 0.0 mm 0 W/m2
00:28 7.2 °C 6.8 °C 1028.3 hPa NNW 6.1 km/h 11.1 km/h 97% 0.0 mm 0 W/m2
00:33 7.2 °C 6.8 °C 1028.3 hPa NNW 6.1 km/h 11.1 km/h 97% 0.0 mm 0 W/m2
00:38 7.1 °C 6.7 °C 1028.3 hPa NNW 5.0 km/h 9.7 km/h 97% 0.0 mm 0 W/m2
00:43 7.0 °C 6.6 °C 1028.3 hPa NNW 3.5 km/h 9.7 km/h 97% 0.0 mm 0 W/m2
00:48 6.8 °C 6.5 °C 1028.3 hPa NNW 6.1 km/h 8.7 km/h 98% 0.0 mm 0 W/m2
00:53 6.8 °C 6.5 °C 1028.3 hPa NNW 3.5 km/h 8.7 km/h 98% 0.0 mm 0 W/m2
00:58 6.7 °C 6.4 °C 1028.0 hPa NNW 6.1 km/h 9.7 km/h 98% 0.0 mm 0 W/m2
01:03 6.6 °C 6.3 °C 1028.3 hPa NNW 6.1 km/h 9.7 km/h 98% 0.0 mm 0 W/m2
01:08 6.5 °C 6.2 °C 1028.0 hPa NNW 6.1 km/h 9.7 km/h 98% 0.0 mm 0 W/m2
01:13 6.6 °C 6.3 °C 1028.0 hPa NNW 6.1 km/h 12.2 km/h 98% 0.0 mm 0 W/m2
01:17 6.6 °C 6.3 °C 1028.0 hPa NNW 5.0 km/h 12.2 km/h 98% 0.0 mm 0 W/m2
01:23 6.5 °C 6.2 °C 1028.3 hPa NNW 6.1 km/h 9.7 km/h 98% 0.0 mm 0 W/m2
01:28 6.6 °C 6.3 °C 1028.0 hPa NNW 8.7 km/h 11.1 km/h 98% 0.0 mm 0 W/m2
01:33 6.7 °C 6.4 °C 1028.3 hPa NNW 8.7 km/h 11.1 km/h 98% 0.0 mm 0 W/m2
01:38 6.8 °C 6.5 °C 1028.3 hPa NNW 11.1 km/h 14.8 km/h 98% 0.0 mm 0 W/m2
01:43 6.9 °C 6.6 °C 1028.3 hPa NNW 12.2 km/h 15.8 km/h 98% 0.0 mm 0 W/m2
01:48 6.8 °C 6.5 °C 1028.0 hPa NNW 9.7 km/h 15.8 km/h 98% 0.0 mm 0 W/m2
01:53 6.8 °C 6.5 °C 1028.3 hPa NNW 7.2 km/h 15.8 km/h 98% 0.0 mm 0 W/m2
01:58 6.7 °C 6.4 °C 1028.3 hPa NNW 6.1 km/h 13.4 km/h 98% 0.0 mm 0 W/m2
02:03 6.5 °C 6.2 °C 1028.0 hPa North 5.0 km/h 12.2 km/h 98% 0.0 mm 0 W/m2
02:07 6.4 °C 6.1 °C 1028.0 hPa NNW 5.0 km/h 12.2 km/h 98% 0.0 mm 0 W/m2
02:13 6.3 °C 6.0 °C 1028.0 hPa NNW 7.2 km/h 11.1 km/h 98% 0.0 mm 0 W/m2
02:18 6.3 °C 6.0 °C 1028.0 hPa NNW 6.1 km/h 9.7 km/h 98% 0.0 mm 0 W/m2
02:23 6.3 °C 6.0 °C 1028.0 hPa NNW 8.7 km/h 11.1 km/h 98% 0.0 mm 0 W/m2
02:28 6.4 °C 6.1 °C 1027.7 hPa NNW 7.2 km/h 13.4 km/h 98% 0.0 mm 0 W/m2
02:33 6.4 °C 6.1 °C 1028.0 hPa NNW 6.1 km/h 13.4 km/h 98% 0.0 mm 0 W/m2
02:38 6.3 °C 6.0 °C 1028.0 hPa NNW 6.1 km/h 13.4 km/h 98% 0.0 mm 0 W/m2
02:43 6.1 °C 5.8 °C 1028.0 hPa NNW 5.0 km/h 12.2 km/h 98% 0.0 mm 0 W/m2
02:47 6.0 °C 5.7 °C 1027.7 hPa NNW 6.1 km/h 9.7 km/h 98% 0.0 mm 0 W/m2
02:53 6.0 °C 5.7 °C 1028.0 hPa NNW 7.2 km/h 12.2 km/h 98% 0.0 mm 0 W/m2
02:58 6.0 °C 5.7 °C 1027.7 hPa NNW 6.1 km/h 13.4 km/h 98% 0.0 mm 0 W/m2
03:03 6.0 °C 5.7 °C 1027.7 hPa NNW 7.2 km/h 13.4 km/h 98% 0.0 mm 0 W/m2
03:08 6.0 °C 5.7 °C 1027.7 hPa NNW 5.0 km/h 13.4 km/h 98% 0.0 mm 0 W/m2
03:14 6.0 °C 5.7 °C 1027.7 hPa NNW 7.2 km/h 13.4 km/h 98% 0.0 mm 0 W/m2
03:19 6.0 °C 5.7 °C 1027.7 hPa NNW 7.2 km/h 15.8 km/h 98% 0.0 mm 0 W/m2
03:24 6.0 °C 5.7 °C 1027.7 hPa NNW 5.0 km/h 15.8 km/h 98% 0.0 mm 0 W/m2
03:29 6.0 °C 5.7 °C 1027.7 hPa NNW 5.0 km/h 15.8 km/h 98% 0.0 mm 0 W/m2
03:34 6.0 °C 5.7 °C 1027.7 hPa NNW 6.1 km/h 12.2 km/h 98% 0.0 mm 0 W/m2
03:39 6.0 °C 5.7 °C 1027.7 hPa NNW 7.2 km/h 12.2 km/h 98% 0.0 mm 0 W/m2
03:44 5.8 °C 5.7 °C 1027.7 hPa NNW 6.1 km/h 12.2 km/h 99% 0.0 mm 0 W/m2
03:49 5.7 °C 5.6 °C 1027.7 hPa NW 7.2 km/h 11.1 km/h 99% 0.0 mm 0 W/m2
03:54 5.6 °C 5.4 °C 1027.7 hPa NNW 6.1 km/h 11.1 km/h 99% 0.0 mm 0 W/m2
03:59 5.6 °C 5.4 °C 1027.7 hPa NNW 6.1 km/h 11.1 km/h 99% 0.0 mm 0 W/m2
04:04 5.5 °C 5.3 °C 1027.7 hPa NW 7.2 km/h 11.1 km/h 99% 0.0 mm 0 W/m2
04:09 5.5 °C 5.3 °C 1027.7 hPa NW 7.2 km/h 11.1 km/h 99% 0.0 mm 0 W/m2
04:14 5.5 °C 5.3 °C 1027.7 hPa NNW 7.2 km/h 12.2 km/h 99% 0.0 mm 0 W/m2
04:19 5.4 °C 5.3 °C 1027.7 hPa NNW 6.1 km/h 12.2 km/h 99% 0.0 mm 0 W/m2
04:25 5.4 °C 5.3 °C 1027.7 hPa NW 6.1 km/h 13.4 km/h 99% 0.0 mm 0 W/m2
04:30 5.3 °C 5.2 °C 1027.7 hPa NW 8.7 km/h 13.4 km/h 99% 0.0 mm 0 W/m2
04:35 5.3 °C 5.2 °C 1027.7 hPa NW 6.1 km/h 12.2 km/h 99% 0.0 mm 0 W/m2
04:40 5.4 °C 5.3 °C 1027.7 hPa NNW 6.1 km/h 12.2 km/h 99% 0.0 mm 0 W/m2
04:45 5.3 °C 5.2 °C 1027.7 hPa NNW 8.7 km/h 12.2 km/h 99% 0.0 mm 0 W/m2
04:50 5.3 °C 5.2 °C 1027.7 hPa NNW 5.0 km/h 12.2 km/h 99% 0.0 mm 0 W/m2
04:55 5.3 °C 5.2 °C 1027.7 hPa NNW 7.2 km/h 12.2 km/h 99% 0.0 mm 0 W/m2
05:00 5.3 °C 5.2 °C 1027.7 hPa NNW 6.1 km/h 12.2 km/h 99% 0.0 mm 0 W/m2
05:05 5.3 °C 5.2 °C 1027.7 hPa NNW 5.0 km/h 12.2 km/h 99% 0.0 mm 0 W/m2
05:10 5.3 °C 5.2 °C 1027.7 hPa NNW 5.0 km/h 12.2 km/h 99% 0.0 mm 0 W/m2
05:15 5.3 °C 5.2 °C 1028.0 hPa NNW 5.0 km/h 9.7 km/h 99% 0.0 mm 0 W/m2
05:20 5.2 °C 5.1 °C 1027.7 hPa NW 7.2 km/h 11.1 km/h 99% 0.0 mm 0 W/m2
05:25 5.3 °C 5.2 °C 1027.7 hPa NW 6.1 km/h 11.1 km/h 99% 0.0 mm 0 W/m2
05:30 5.2 °C 5.1 °C 1027.7 hPa NNW 7.2 km/h 11.1 km/h 99% 0.0 mm 0 W/m2
05:35 5.3 °C 5.2 °C 1028.0 hPa NNW 7.2 km/h 12.2 km/h 99% 0.0 mm 0 W/m2
05:41 5.3 °C 5.2 °C 1027.7 hPa NNW 7.2 km/h 14.8 km/h 99% 0.0 mm 0 W/m2
05:46 5.3 °C 5.2 °C 1028.0 hPa NW 6.1 km/h 14.8 km/h 99% 0.0 mm 0 W/m2
05:51 5.2 °C 5.1 °C 1027.7 hPa NNW 9.7 km/h 13.4 km/h 99% 0.0 mm 0 W/m2
05:55 5.2 °C 5.1 °C 1027.7 hPa NNW 6.1 km/h 13.4 km/h 99% 0.0 mm 0 W/m2
06:01 5.1 °C 4.9 °C 1027.7 hPa NNW 8.7 km/h 13.4 km/h 99% 0.0 mm 0 W/m2
06:05 5.1 °C 4.9 °C 1027.7 hPa North 8.7 km/h 15.8 km/h 99% 0.0 mm 0 W/m2
06:11 5.1 °C 4.9 °C 1028.0 hPa North 7.2 km/h 15.8 km/h 99% 0.0 mm 0 W/m2
06:16 5.2 °C 5.1 °C 1028.0 hPa NNW 8.7 km/h 17.2 km/h 99% 0.0 mm 0 W/m2
06:21 5.2 °C 5.1 °C 1027.7 hPa NNW 7.2 km/h 17.2 km/h 99% 0.0 mm 0 W/m2
06:26 5.3 °C 5.2 °C 1027.7 hPa NNW 7.2 km/h 15.8 km/h 99% 0.0 mm 0 W/m2
06:31 5.3 °C 5.2 °C 1027.7 hPa NNW 8.7 km/h 15.8 km/h 99% 0.0 mm 0 W/m2
06:36 5.2 °C 5.1 °C 1027.7 hPa NNW 9.7 km/h 14.8 km/h 99% 0.0 mm 0 W/m2
06:40 5.0 °C 4.8 °C 1027.7 hPa NNW 6.1 km/h 13.4 km/h 99% 0.0 mm 0 W/m2
06:46 5.0 °C 4.8 °C 1027.7 hPa NNW 5.0 km/h 13.4 km/h 99% 0.0 mm 0 W/m2
06:51 4.9 °C 4.8 °C 1027.7 hPa NNW 7.2 km/h 11.1 km/h 99% 0.0 mm 0 W/m2
06:55 4.8 °C 4.7 °C 1027.7 hPa NNW 7.2 km/h 11.1 km/h 99% 0.0 mm 2 W/m2
07:00 4.9 °C 4.8 °C 1027.7 hPa NNW 6.1 km/h 12.2 km/h 99% 0.0 mm 4 W/m2
07:06 4.8 °C 4.7 °C 1027.7 hPa NNW 6.1 km/h 12.2 km/h 99% 0.0 mm 7 W/m2
07:11 4.8 °C 4.7 °C 1028.0 hPa NNW 8.7 km/h 14.8 km/h 99% 0.0 mm 10 W/m2
07:15 4.8 °C 4.7 °C 1028.0 hPa NW 6.1 km/h 14.8 km/h 99% 0.0 mm 13 W/m2
07:20 4.7 °C 4.6 °C 1027.7 hPa NNW 6.1 km/h 13.4 km/h 99% 0.0 mm 22 W/m2
07:25 4.9 °C 4.8 °C 1027.7 hPa NNW 6.1 km/h 12.2 km/h 99% 0.0 mm 58 W/m2
07:30 5.1 °C 4.9 °C 1028.0 hPa NNW 8.7 km/h 12.2 km/h 99% 0.0 mm 73 W/m2
07:35 5.4 °C 5.3 °C 1028.0 hPa NNW 7.2 km/h 12.2 km/h 99% 0.0 mm 88 W/m2
07:40 5.6 °C 5.4 °C 1028.0 hPa NW 6.1 km/h 12.2 km/h 99% 0.0 mm 101 W/m2
07:46 5.8 °C 5.7 °C 1028.0 hPa NW 7.2 km/h 12.2 km/h 99% 0.0 mm 113 W/m2
07:50 6.0 °C 5.7 °C 1028.0 hPa NW 8.7 km/h 14.8 km/h 98% 0.0 mm 124 W/m2
07:55 6.2 °C 5.9 °C 1028.0 hPa NNW 7.2 km/h 14.8 km/h 98% 0.0 mm 135 W/m2
08:00 6.5 °C 6.1 °C 1028.3 hPa NNW 9.7 km/h 14.8 km/h 97% 0.0 mm 148 W/m2
08:06 6.7 °C 6.1 °C 1028.3 hPa NNW 6.1 km/h 13.4 km/h 96% 0.0 mm 157 W/m2
08:11 6.9 °C 6.2 °C 1028.3 hPa NNW 8.7 km/h 13.4 km/h 95% 0.0 mm 171 W/m2
08:15 7.1 °C 6.1 °C 1028.3 hPa NNW 6.1 km/h 14.8 km/h 93% 0.0 mm 181 W/m2
08:20 7.6 °C 6.4 °C 1028.3 hPa NNW 7.2 km/h 14.8 km/h 92% 0.0 mm 192 W/m2
08:25 7.9 °C 6.5 °C 1028.3 hPa NNW 7.2 km/h 13.4 km/h 91% 0.0 mm 203 W/m2
08:30 8.2 °C 6.5 °C 1028.3 hPa NNW 7.2 km/h 13.4 km/h 89% 0.0 mm 214 W/m2
08:35 8.3 °C 6.3 °C 1028.3 hPa North 9.7 km/h 15.8 km/h 87% 0.0 mm 225 W/m2
08:40 8.4 °C 6.4 °C 1028.3 hPa North 8.7 km/h 15.8 km/h 87% 0.0 mm 239 W/m2
08:45 8.6 °C 6.6 °C 1028.3 hPa NNW 7.2 km/h 15.8 km/h 87% 0.0 mm 255 W/m2
08:51 8.9 °C 6.8 °C 1028.3 hPa NNW 6.1 km/h 14.8 km/h 87% 0.0 mm 267 W/m2
08:55 9.1 °C 6.7 °C 1028.7 hPa NW 8.7 km/h 14.8 km/h 85% 0.0 mm 278 W/m2
09:00 9.2 °C 6.7 °C 1028.7 hPa NW 8.7 km/h 17.2 km/h 84% 0.0 mm 287 W/m2
09:06 9.4 °C 6.8 °C 1028.7 hPa NNW 6.1 km/h 17.2 km/h 84% 0.0 mm 295 W/m2
09:10 9.8 °C 7.2 °C 1028.7 hPa NNW 8.7 km/h 17.2 km/h 84% 0.0 mm 303 W/m2
09:15 10.2 °C 7.4 °C 1028.7 hPa NNW 5.0 km/h 13.4 km/h 83% 0.0 mm 308 W/m2
09:35 10.9 °C 7.6 °C 1028.3 hPa NNW 8.7 km/h 14.8 km/h 80% 0.0 mm 101 W/m2
09:40 11.3 °C 7.6 °C 1028.3 hPa North 8.7 km/h 13.4 km/h 78% 0.0 mm 61 W/m2
09:45 11.5 °C 7.8 °C 1028.3 hPa NNW 9.7 km/h 13.4 km/h 78% 0.0 mm 58 W/m2
09:50 11.6 °C 7.9 °C 1028.3 hPa NNW 8.7 km/h 13.4 km/h 78% 0.0 mm 56 W/m2
09:55 11.8 °C 8.1 °C 1028.3 hPa NNW 6.1 km/h 13.4 km/h 78% 0.0 mm 54 W/m2
10:00 12.0 °C 7.9 °C 1028.3 hPa NW 3.5 km/h 12.2 km/h 76% 0.0 mm 54 W/m2
10:05 12.3 °C 8.0 °C 1028.3 hPa NW 6.1 km/h 13.4 km/h 75% 0.0 mm 54 W/m2
10:10 12.5 °C 8.2 °C 1028.3 hPa NNW 9.7 km/h 14.8 km/h 75% 0.0 mm 56 W/m2
10:15 12.5 °C 8.2 °C 1028.3 hPa NNW 6.1 km/h 14.8 km/h 75% 0.0 mm 104 W/m2
10:20 12.8 °C 8.5 °C 1028.3 hPa NW 6.1 km/h 13.4 km/h 75% 0.0 mm 227 W/m2
10:25 12.9 °C 8.6 °C 1028.3 hPa NW 3.5 km/h 13.4 km/h 75% 0.0 mm 331 W/m2
10:30 13.3 °C 8.9 °C 1028.3 hPa NNW 3.5 km/h 12.2 km/h 75% 0.0 mm 348 W/m2
10:35 13.7 °C 9.3 °C 1028.7 hPa NNW 3.5 km/h 9.7 km/h 75% 0.0 mm 355 W/m2
10:40 13.7 °C 8.9 °C 1028.7 hPa NNW 6.1 km/h 12.2 km/h 73% 0.0 mm 358 W/m2
10:45 13.7 °C 9.2 °C 1028.7 hPa NNW 5.0 km/h 12.2 km/h 74% 0.0 mm 365 W/m2
10:50 13.9 °C 9.6 °C 1028.7 hPa Calm   11.1 km/h 75% 0.0 mm 369 W/m2
10:55 14.3 °C 9.7 °C 1028.7 hPa NW 2.6 km/h 9.7 km/h 74% 0.0 mm 372 W/m2
11:00 14.4 °C 9.4 °C 1028.7 hPa NW 3.5 km/h 8.7 km/h 72% 0.0 mm 375 W/m2
11:05 14.5 °C 9.3 °C 1028.7 hPa Calm   8.7 km/h 71% 0.0 mm 379 W/m2
11:10 14.8 °C 9.6 °C 1028.7 hPa Calm   7.2 km/h 71% 0.0 mm 382 W/m2
11:15 15.3 °C 9.9 °C 1028.7 hPa Calm   6.1 km/h 70% 0.0 mm 384 W/m2
11:20 15.6 °C 9.9 °C 1028.7 hPa Calm   3.5 km/h 69% 0.0 mm 386 W/m2
11:25 16.5 °C 10.3 °C 1028.3 hPa Calm   3.5 km/h 67% 0.0 mm 388 W/m2
11:30 17.2 °C 10.3 °C 1028.3 hPa Calm     64% 0.0 mm 389 W/m2
11:35 17.7 °C 10.6 °C 1028.3 hPa Calm     63% 0.0 mm 390 W/m2
11:40 17.8 °C 10.2 °C 1028.3 hPa Calm   5.0 km/h 61% 0.0 mm 388 W/m2
11:45 17.6 °C 10.2 °C 1028.3 hPa SSW 5.0 km/h 8.7 km/h 62% 0.0 mm 387 W/m2
11:51 17.0 °C 9.9 °C 1028.3 hPa SW 5.0 km/h 9.7 km/h 63% 0.0 mm 382 W/m2
11:56 16.5 °C 10.6 °C 1028.0 hPa SW 8.7 km/h 11.1 km/h 68% 0.0 mm 379 W/m2
12:01 16.3 °C 10.6 °C 1028.0 hPa SW 5.0 km/h 12.2 km/h 69% 0.0 mm 377 W/m2
12:06 16.6 °C 11.1 °C 1028.0 hPa SW 6.1 km/h 12.2 km/h 70% 0.0 mm 376 W/m2
12:26 16.8 °C 10.7 °C 1027.7 hPa South 6.1 km/h 12.2 km/h 67% 0.0 mm 364 W/m2
12:31 16.8 °C 10.4 °C 1027.7 hPa South 6.1 km/h 12.2 km/h 66% 0.0 mm 360 W/m2
12:36 17.0 °C 9.9 °C 1027.7 hPa South 8.7 km/h 12.2 km/h 63% 0.0 mm 358 W/m2
12:41 17.1 °C 10.2 °C 1027.7 hPa SSW 7.2 km/h 11.1 km/h 64% 0.0 mm 354 W/m2
12:46 17.0 °C 10.2 °C 1027.3 hPa SSW 9.7 km/h 13.4 km/h 64% 0.0 mm 349 W/m2
12:51 16.9 °C 10.3 °C 1027.3 hPa SSW 5.0 km/h 13.4 km/h 65% 0.0 mm 343 W/m2
12:56 17.1 °C 10.0 °C 1027.3 hPa SSW 11.1 km/h 13.4 km/h 63% 0.0 mm 339 W/m2
13:01 16.6 °C 9.8 °C 1027.3 hPa SSW 7.2 km/h 13.4 km/h 64% 0.0 mm 331 W/m2
13:06 16.7 °C 9.9 °C 1027.3 hPa SSW 8.7 km/h 13.4 km/h 64% 0.0 mm 322 W/m2
13:11 16.8 °C 9.7 °C 1027.0 hPa SSW 7.2 km/h 12.2 km/h 63% 0.0 mm 311 W/m2
13:16 16.9 °C 10.1 °C 1027.0 hPa SSW 6.1 km/h 12.2 km/h 64% 0.0 mm 293 W/m2
13:21 16.9 °C 10.1 °C 1027.0 hPa SSW 9.7 km/h 12.2 km/h 64% 0.0 mm 273 W/m2
13:26 17.1 °C 10.2 °C 1027.0 hPa South 8.7 km/h 12.2 km/h 64% 0.0 mm 223 W/m2
13:31 17.1 °C 10.5 °C 1027.0 hPa South 8.7 km/h 12.2 km/h 65% 0.0 mm 177 W/m2
13:36 17.2 °C 10.6 °C 1027.0 hPa South 8.7 km/h 11.1 km/h 65% 0.0 mm 134 W/m2
13:41 17.4 °C 10.8 °C 1027.0 hPa South 8.7 km/h 12.2 km/h 65% 0.0 mm 96 W/m2
13:46 17.4 °C 10.6 °C 1027.0 hPa South 9.7 km/h 12.2 km/h 64% 0.0 mm 70 W/m2
13:51 17.0 °C 10.6 °C 1027.0 hPa Calm   13.4 km/h 66% 0.0 mm 67 W/m2
13:56 17.7 °C 11.1 °C 1027.0 hPa SSE 5.0 km/h 13.4 km/h 65% 0.0 mm 66 W/m2
14:01 17.6 °C 10.7 °C 1027.0 hPa South 6.1 km/h 12.2 km/h 64% 0.0 mm 66 W/m2
14:06 17.7 °C 11.1 °C 1027.0 hPa South 6.1 km/h 12.2 km/h 65% 0.0 mm 67 W/m2
14:12 17.8 °C 11.6 °C 1027.0 hPa South 11.1 km/h 12.2 km/h 67% 0.0 mm 70 W/m2
14:17 17.4 °C 11.0 °C 1027.0 hPa South 8.7 km/h 13.4 km/h 66% 0.0 mm 71 W/m2
14:22 17.3 °C 11.3 °C 1027.0 hPa South 8.7 km/h 13.4 km/h 68% 0.0 mm 73 W/m2
14:27 17.5 °C 11.6 °C 1027.0 hPa South 8.7 km/h 12.2 km/h 68% 0.0 mm 74 W/m2
14:32 17.6 °C 11.6 °C 1027.0 hPa South 6.1 km/h 11.1 km/h 68% 0.0 mm 74 W/m2
14:37 17.8 °C 12.1 °C 1027.0 hPa South 6.1 km/h 11.1 km/h 69% 0.0 mm 75 W/m2
14:42 17.8 °C 12.1 °C 1027.0 hPa SSW 5.0 km/h 11.1 km/h 69% 0.0 mm 76 W/m2
14:47 18.0 °C 12.2 °C 1027.0 hPa SSW 3.5 km/h 11.1 km/h 69% 0.0 mm 75 W/m2
14:52 18.0 °C 12.0 °C 1027.0 hPa SSW 6.1 km/h 11.1 km/h 68% 0.0 mm 87 W/m2
14:57 18.0 °C 12.0 °C 1027.0 hPa South 6.1 km/h 11.1 km/h 68% 0.0 mm 115 W/m2
15:02 18.0 °C 12.0 °C 1027.0 hPa South 6.1 km/h 12.2 km/h 68% 0.0 mm 155 W/m2
15:07 17.7 °C 11.9 °C 1027.0 hPa SSW 5.0 km/h 12.2 km/h 69% 0.0 mm 183 W/m2
15:12 17.6 °C 12.1 °C 1027.0 hPa South 8.7 km/h 11.1 km/h 70% 0.0 mm 186 W/m2
15:17 17.9 °C 12.6 °C 1027.0 hPa South 7.2 km/h 11.1 km/h 71% 0.0 mm 179 W/m2
15:22 17.9 °C 12.3 °C 1027.0 hPa South 6.1 km/h 11.1 km/h 70% 0.0 mm 173 W/m2
15:27 18.2 °C 12.4 °C 1027.0 hPa South 9.7 km/h 11.1 km/h 69% 0.0 mm 164 W/m2
15:32 18.4 °C 12.4 °C 1027.0 hPa South 5.0 km/h 11.1 km/h 68% 0.0 mm 163 W/m2
15:37 18.7 °C 12.7 °C 1027.0 hPa SSE 5.0 km/h 11.1 km/h 68% 0.0 mm 158 W/m2
15:42 17.7 °C 11.9 °C 1027.0 hPa South 6.1 km/h 11.1 km/h 69% 0.0 mm 80 W/m2
15:47 16.8 °C 11.9 °C 1027.3 hPa South 5.0 km/h 11.1 km/h 73% 0.0 mm 79 W/m2
15:52 17.0 °C 11.9 °C 1027.3 hPa South 6.1 km/h 9.7 km/h 72% 0.0 mm 97 W/m2
15:57 16.7 °C 11.8 °C 1027.3 hPa South 6.1 km/h 9.7 km/h 73% 0.0 mm 77 W/m2
16:02 16.2 °C 11.6 °C 1027.3 hPa SSE 3.5 km/h 9.7 km/h 74% 0.0 mm 81 W/m2
16:07 15.8 °C 11.8 °C 1027.3 hPa South 3.5 km/h 11.1 km/h 77% 0.0 mm 65 W/m2
16:12 15.7 °C 11.9 °C 1027.3 hPa South 3.5 km/h 11.1 km/h 78% 0.0 mm 47 W/m2
16:17 15.6 °C 12.0 °C 1027.3 hPa SSW 5.0 km/h 8.7 km/h 79% 0.0 mm 42 W/m2
16:22 15.5 °C 11.9 °C 1027.3 hPa SSW 1.1 km/h 11.1 km/h 79% 0.0 mm 33 W/m2
16:27 15.3 °C 11.9 °C 1027.3 hPa SSW 6.1 km/h 11.1 km/h 80% 0.0 mm 21 W/m2
16:32 15.2 °C 11.9 °C 1027.3 hPa South 1.1 km/h 11.1 km/h 81% 0.0 mm 17 W/m2
16:37 15.1 °C 11.9 °C 1027.3 hPa SSW 2.6 km/h 11.1 km/h 81% 0.0 mm 16 W/m2
16:42 15.1 °C 11.9 °C 1027.3 hPa Calm   8.7 km/h 81% 0.0 mm 12 W/m2
16:47 15.1 °C 12.1 °C 1027.3 hPa Calm   9.7 km/h 82% 0.0 mm 10 W/m2
16:52 15.1 °C 12.2 °C 1027.3 hPa SSW 2.6 km/h 9.7 km/h 83% 0.0 mm 7 W/m2
16:57 15.1 °C 12.2 °C 1027.7 hPa SSW 3.5 km/h 9.7 km/h 83% 0.0 mm 4 W/m2
17:02 15.0 °C 12.2 °C 1027.7 hPa Calm   9.7 km/h 83% 0.0 mm 4 W/m2
17:07 15.0 °C 12.2 °C 1027.7 hPa SSW 2.6 km/h 7.2 km/h 83% 0.0 mm 1 W/m2
17:12 15.0 °C 12.2 °C 1027.7 hPa Calm   6.1 km/h 83% 0.0 mm 0 W/m2
17:17 15.0 °C 12.2 °C 1027.3 hPa SSW 1.1 km/h 6.1 km/h 83% 0.0 mm 0 W/m2
17:22 14.9 °C 12.4 °C 1027.7 hPa Calm   5.0 km/h 85% 0.0 mm 0 W/m2
17:27 14.9 °C 12.4 °C 1027.7 hPa Calm   5.0 km/h 85% 0.0 mm 0 W/m2
17:32 14.8 °C 12.3 °C 1027.7 hPa Calm     85% 0.0 mm 0 W/m2
17:37 14.8 °C 12.3 °C 1027.7 hPa Calm     85% 0.0 mm 0 W/m2
17:42 14.7 °C 12.2 °C 1027.7 hPa Calm     85% 0.0 mm 0 W/m2
17:47 14.6 °C 12.1 °C 1027.7 hPa Calm     85% 0.0 mm 0 W/m2
17:52 14.6 °C 12.1 °C 1027.7 hPa Calm     85% 0.0 mm 0 W/m2
17:57 14.6 °C 12.1 °C 1027.7 hPa Calm     85% 0.0 mm 0 W/m2
18:02 14.6 °C 12.1 °C 1027.7 hPa Calm     85% 0.0 mm 0 W/m2
18:07 14.5 °C 12.0 °C 1028.0 hPa Calm     85% 0.0 mm 0 W/m2
18:12 14.5 °C 12.2 °C 1028.0 hPa Calm     86% 0.0 mm 0 W/m2
18:17 14.4 °C 12.1 °C 1028.0 hPa Calm     86% 0.0 mm 0 W/m2
18:22 14.3 °C 12.2 °C 1028.0 hPa Calm     87% 0.0 mm 0 W/m2
18:27 14.1 °C 12.2 °C 1028.0 hPa Calm     88% 0.0 mm 0 W/m2
18:32 14.0 °C 12.1 °C 1028.0 hPa Calm     88% 0.0 mm 0 W/m2
18:37 14.0 °C 12.1 °C 1028.0 hPa Calm     88% 0.0 mm 0 W/m2
18:42 13.9 °C 12.1 °C 1028.0 hPa Calm     89% 0.0 mm 0 W/m2
18:47 13.9 °C 12.1 °C 1028.0 hPa Calm     89% 0.0 mm 0 W/m2
18:52 13.8 °C 12.0 °C 1028.0 hPa Calm     89% 0.0 mm 0 W/m2
18:57 13.8 °C 12.2 °C 1028.0 hPa Calm     90% 0.0 mm 0 W/m2
19:02 13.8 °C 12.2 °C 1028.0 hPa Calm     90% 0.0 mm 0 W/m2
19:07 13.7 °C 12.1 °C 1028.3 hPa Calm     90% 0.0 mm 0 W/m2
19:12 13.7 °C 12.1 °C 1028.0 hPa Calm     90% 0.0 mm 0 W/m2
19:17 13.6 °C 12.0 °C 1028.0 hPa Calm     90% 0.0 mm 0 W/m2
19:22 13.5 °C 11.9 °C 1028.0 hPa Calm     90% 0.0 mm 0 W/m2
19:28 13.5 °C 11.9 °C 1028.3 hPa Calm     90% 0.0 mm 0 W/m2
19:33 13.4 °C 11.9 °C 1028.0 hPa Calm   2.6 km/h 91% 0.0 mm 0 W/m2
19:38 13.3 °C 11.9 °C 1028.3 hPa Calm   5.0 km/h 91% 0.0 mm 0 W/m2
19:40 13.3 °C 11.9 °C 1028.0 hPa Calm   5.0 km/h 91% 0.0 mm 0 W/m2
19:45 13.3 °C 11.9 °C 1028.3 hPa NNW 2.6 km/h 5.0 km/h 91% 0.0 mm 0 W/m2
19:50 13.2 °C 11.8 °C 1028.3 hPa Calm   5.0 km/h 91% 0.0 mm 0 W/m2
19:55 13.1 °C 11.7 °C 1028.0 hPa Calm   5.0 km/h 91% 0.0 mm 0 W/m2
20:00 13.0 °C 11.6 °C 1028.0 hPa North 1.1 km/h 3.5 km/h 91% 0.0 mm 0 W/m2
20:05 12.9 °C 11.6 °C 1028.0 hPa North 2.6 km/h 3.5 km/h 92% 0.0 mm 0 W/m2
20:10 12.7 °C 11.4 °C 1028.0 hPa Calm   3.5 km/h 92% 0.0 mm 0 W/m2
20:15 12.6 °C 11.3 °C 1028.0 hPa Calm   3.5 km/h 92% 0.0 mm 0 W/m2
20:20 12.5 °C 11.2 °C 1028.0 hPa Calm     92% 0.0 mm 0 W/m2
20:25 12.3 °C 11.1 °C 1028.0 hPa Calm     92% 0.0 mm 0 W/m2
20:30 12.2 °C 10.9 °C 1028.0 hPa Calm     92% 0.0 mm 0 W/m2
20:35 12.2 °C 10.9 °C 1028.0 hPa Calm     92% 0.0 mm 0 W/m2
20:40 12.1 °C 11.0 °C 1028.0 hPa Calm     93% 0.0 mm 0 W/m2
20:45 12.1 °C 11.0 °C 1027.7 hPa Calm     93% 0.0 mm 0 W/m2
20:50 12.1 °C 11.0 °C 1028.0 hPa Calm     93% 0.0 mm 0 W/m2
20:55 12.1 °C 11.2 °C 1028.0 hPa Calm     94% 0.0 mm 0 W/m2
21:00 12.1 °C 11.2 °C 1028.0 hPa Calm     94% 0.0 mm 0 W/m2
21:05 12.1 °C 11.2 °C 1028.0 hPa Calm     94% 0.0 mm 0 W/m2
21:10 12.2 °C 11.3 °C 1028.0 hPa Calm     94% 0.0 mm 0 W/m2
21:15 12.2 °C 11.4 °C 1028.0 hPa Calm     95% 0.0 mm 0 W/m2
21:20 12.3 °C 11.5 °C 1028.3 hPa Calm     95% 0.0 mm 0 W/m2
21:25 12.2 °C 11.3 °C 1028.0 hPa Calm     94% 0.0 mm 0 W/m2
21:30 12.2 °C 11.3 °C 1028.3 hPa Calm     94% 0.0 mm 0 W/m2
21:35 12.2 °C 11.3 °C 1028.3 hPa Calm     94% 0.0 mm 0 W/m2
21:40 12.1 °C 11.2 °C 1028.3 hPa Calm     94% 0.0 mm 0 W/m2
21:45 12.0 °C 11.1 °C 1028.0 hPa Calm     94% 0.0 mm 0 W/m2
21:50 11.9 °C 11.1 °C 1028.3 hPa Calm     95% 0.0 mm 0 W/m2
21:55 11.8 °C 11.1 °C 1028.0 hPa Calm     95% 0.0 mm 0 W/m2
22:00 11.7 °C 10.9 °C 1028.3 hPa Calm     95% 0.0 mm 0 W/m2
22:05 11.5 °C 10.7 °C 1028.3 hPa Calm     95% 0.0 mm 0 W/m2
22:10 11.4 °C 10.6 °C 1028.3 hPa Calm     95% 0.0 mm 0 W/m2
22:15 11.3 °C 10.6 °C 1028.3 hPa Calm     95% 0.0 mm 0 W/m2
22:20 11.3 °C 10.6 °C 1028.3 hPa Calm     95% 0.0 mm 0 W/m2
22:25 11.2 °C 10.4 °C 1028.3 hPa Calm     95% 0.0 mm 0 W/m2
22:30 11.0 °C 10.2 °C 1028.0 hPa Calm     95% 0.0 mm 0 W/m2
22:35 10.9 °C 10.3 °C 1028.3 hPa Calm     96% 0.0 mm 0 W/m2
22:40 10.8 °C 10.2 °C 1028.3 hPa Calm     96% 0.0 mm 0 W/m2
22:45 10.7 °C 10.1 °C 1028.0 hPa Calm     96% 0.0 mm 0 W/m2
22:47 10.7 °C 10.1 °C 1028.3 hPa Calm     96% 0.0 mm 0 W/m2
22:52 10.7 °C 10.2 °C 1028.3 hPa Calm     97% 0.0 mm 0 W/m2
22:57 10.7 °C 10.2 °C 1028.0 hPa Calm     97% 0.0 mm 0 W/m2
23:02 10.7 °C 10.2 °C 1028.3 hPa Calm     97% 0.0 mm 0 W/m2
23:07 10.7 °C 10.2 °C 1028.3 hPa Calm     97% 0.0 mm 0 W/m2
23:12 10.8 °C 10.3 °C 1028.0 hPa Calm     97% 0.0 mm 0 W/m2
23:17 10.7 °C 10.4 °C 1028.0 hPa Calm     98% 0.0 mm 0 W/m2
23:22 10.8 °C 10.5 °C 1028.0 hPa Calm   2.6 km/h 98% 0.0 mm 0 W/m2
23:27 10.8 °C 10.5 °C 1028.0 hPa Calm   2.6 km/h 98% 0.0 mm 0 W/m2
23:32 11.0 °C 10.6 °C 1027.7 hPa Calm   2.6 km/h 97% 0.0 mm 0 W/m2
23:37 10.8 °C 10.5 °C 1028.0 hPa Calm     98% 0.0 mm 0 W/m2
23:42 10.7 °C 10.4 °C 1028.0 hPa Calm     98% 0.0 mm 0 W/m2
23:47 10.6 °C 10.3 °C 1028.0 hPa Calm     98% 0.0 mm 0 W/m2
23:52 10.6 °C 10.3 °C 1028.0 hPa Calm     98% 0.0 mm 0 W/m2
23:58 10.6 °C 10.3 °C 1028.0 hPa Calm   5.0 km/h 98% 0.0 mm 0 W/m2
Northern Hawkes Bay. New Zealand Historic Data
Compliments of Weather Underground - 2.25 mb